createdAt,value
2022-11-13T00:02:46.139Z,73
2022-11-13T00:06:11.276Z,72
2022-11-13T00:09:36.494Z,72
2022-11-13T00:13:01.845Z,73
2022-11-13T00:16:26.969Z,72
2022-11-13T00:19:52.199Z,72
2022-11-13T00:23:17.454Z,72
2022-11-13T00:26:42.688Z,72
2022-11-13T00:30:08.055Z,72
2022-11-13T00:33:55.354Z,72
2022-11-13T00:36:58.396Z,71
2022-11-13T00:40:23.614Z,72
2022-11-13T00:43:48.875Z,72
2022-11-13T00:47:14.120Z,72
2022-11-13T00:50:39.313Z,72
2022-11-13T00:54:04.546Z,72
2022-11-13T00:57:29.768Z,72
2022-11-13T01:00:55.021Z,72
2022-11-13T01:04:20.400Z,72
2022-11-13T01:07:45.512Z,71
2022-11-13T01:11:10.740Z,71
2022-11-13T01:14:35.980Z,71
2022-11-13T01:18:01.174Z,71
2022-11-13T01:21:26.524Z,70
2022-11-13T01:24:51.662Z,70
2022-11-13T01:28:16.883Z,70
2022-11-13T01:31:42.105Z,68
2022-11-13T01:35:07.334Z,68
2022-11-13T01:38:36.107Z,68
2022-11-13T01:41:57.807Z,67
2022-11-13T01:45:23.008Z,67
2022-11-13T01:48:48.237Z,67
2022-11-13T01:52:13.447Z,67
2022-11-13T01:55:38.786Z,67
2022-11-13T01:59:03.894Z,67
2022-11-13T02:02:29.112Z,67
2022-11-13T02:05:54.322Z,68
2022-11-13T02:09:19.558Z,68
2022-11-13T02:12:44.888Z,67
2022-11-13T02:16:10.009Z,67
2022-11-13T02:19:35.243Z,67
2022-11-13T02:23:00.468Z,67
2022-11-13T02:26:25.682Z,67
2022-11-13T02:29:51.031Z,67
2022-11-13T02:33:16.146Z,65
2022-11-13T02:36:41.360Z,65
2022-11-13T02:40:06.579Z,65
2022-11-13T02:43:31.819Z,66
2022-11-13T02:46:57.165Z,68
2022-11-13T02:50:22.273Z,65
2022-11-13T02:53:47.485Z,64
2022-11-13T02:57:12.710Z,64
2022-11-13T03:00:37.966Z,64
2022-11-13T03:04:03.332Z,64
2022-11-13T03:07:29.339Z,63
2022-11-13T03:10:54.578Z,61
2022-11-13T03:14:19.790Z,63
2022-11-13T03:17:45.017Z,63
2022-11-13T03:21:10.368Z,63
2022-11-13T03:24:35.520Z,62
2022-11-13T03:28:00.741Z,62
2022-11-13T03:31:25.991Z,63
2022-11-13T03:34:51.206Z,62
2022-11-13T03:38:16.548Z,61
2022-11-13T03:41:41.641Z,63
2022-11-13T03:45:06.875Z,62
2022-11-13T03:48:32.286Z,63
2022-11-13T03:51:57.299Z,64
2022-11-13T03:55:22.643Z,61
2022-11-13T03:58:49.655Z,61
2022-11-13T04:02:12.979Z,61
2022-11-13T04:05:38.195Z,63
2022-11-13T04:09:03.403Z,63
2022-11-13T04:12:28.740Z,62
2022-11-13T04:15:53.855Z,62
2022-11-13T04:19:19.083Z,61
2022-11-13T04:22:44.312Z,60
2022-11-13T04:26:09.520Z,61
2022-11-13T04:29:34.857Z,60
2022-11-13T04:32:59.975Z,60
2022-11-13T04:36:25.203Z,61
2022-11-13T04:39:50.427Z,61
2022-11-13T04:43:15.650Z,60
2022-11-13T04:46:40.977Z,61
2022-11-13T04:50:06.081Z,62
2022-11-13T04:53:31.302Z,62
2022-11-13T04:56:56.524Z,60
2022-11-13T05:00:21.732Z,60
2022-11-13T05:03:47.092Z,59
2022-11-13T05:07:12.240Z,60
2022-11-13T05:10:37.417Z,61
2022-11-13T05:14:03.740Z,59
2022-11-13T05:17:27.866Z,61
2022-11-13T05:20:53.207Z,62
2022-11-13T05:24:18.296Z,62
2022-11-13T05:27:43.544Z,63
2022-11-13T05:31:08.756Z,64
2022-11-13T05:34:34.017Z,61
2022-11-13T05:37:59.371Z,60
2022-11-13T05:41:24.474Z,63
2022-11-13T05:44:49.665Z,63
2022-11-13T05:48:14.907Z,65
2022-11-13T05:51:40.111Z,65
2022-11-13T05:55:05.464Z,65
2022-11-13T05:58:30.790Z,65
2022-11-13T06:01:55.817Z,66
2022-11-13T06:05:21.006Z,66
2022-11-13T06:08:46.225Z,63
2022-11-13T06:12:11.572Z,65
2022-11-13T06:15:36.655Z,67
2022-11-13T06:19:01.877Z,68
2022-11-13T06:22:27.109Z,67
2022-11-13T06:25:52.329Z,67
2022-11-13T06:29:17.664Z,65
2022-11-13T06:32:42.772Z,65
2022-11-13T06:36:07.989Z,65
2022-11-13T06:39:33.232Z,65
2022-11-13T06:42:58.450Z,63
2022-11-13T06:46:23.804Z,64
2022-11-13T06:49:48.927Z,63
2022-11-13T06:53:14.158Z,65
2022-11-13T06:56:39.441Z,65
2022-11-13T07:00:04.730Z,65
2022-11-13T07:03:30.065Z,66
2022-11-13T07:06:55.237Z,68
2022-11-13T07:10:20.424Z,66
2022-11-13T07:13:45.656Z,68
2022-11-13T07:17:10.910Z,67
2022-11-13T07:20:36.222Z,67
2022-11-13T07:24:01.333Z,66
2022-11-13T07:27:26.584Z,65
2022-11-13T07:30:51.805Z,65
2022-11-13T07:34:17.026Z,63
2022-11-13T07:37:42.375Z,64
2022-11-13T07:41:07.486Z,64
2022-11-13T07:44:53.308Z,66
2022-11-13T07:47:57.935Z,65
2022-11-13T07:51:23.163Z,64
2022-11-13T07:54:48.509Z,59
2022-11-13T07:58:13.583Z,58
2022-11-13T08:01:38.804Z,58
2022-11-13T08:05:04.036Z,57
2022-11-13T08:08:29.523Z,57
2022-11-13T08:11:54.610Z,57
2022-11-13T08:15:19.759Z,56
2022-11-13T08:18:44.978Z,58
2022-11-13T08:22:10.204Z,56
2022-11-13T08:25:35.442Z,56
2022-11-13T08:29:00.781Z,56
2022-11-13T08:32:25.892Z,56
2022-11-13T08:35:51.103Z,56
2022-11-13T08:39:16.336Z,57
2022-11-13T08:42:41.544Z,57
2022-11-13T08:46:06.909Z,57
2022-11-13T08:49:32.013Z,58
2022-11-13T08:52:57.241Z,57
2022-11-13T08:56:22.473Z,56
2022-11-13T08:59:47.687Z,56
2022-11-13T09:03:13.019Z,58
2022-11-13T09:06:38.145Z,57
2022-11-13T09:10:03.337Z,58
2022-11-13T09:13:28.549Z,57
2022-11-13T09:16:53.810Z,57
2022-11-13T09:20:22.643Z,58
2022-11-13T09:23:44.259Z,58
2022-11-13T09:27:09.470Z,59
2022-11-13T09:30:34.715Z,58
2022-11-13T09:33:59.958Z,58
2022-11-13T09:37:25.346Z,58
2022-11-13T09:40:50.449Z,58
2022-11-13T09:44:15.665Z,59
2022-11-13T09:47:40.896Z,58
2022-11-13T09:51:06.124Z,56
2022-11-13T09:54:31.485Z,58
2022-11-13T09:57:56.587Z,57
2022-11-13T10:01:21.868Z,58
2022-11-13T10:04:47.016Z,57
2022-11-13T10:08:12.255Z,57
2022-11-13T10:11:37.586Z,57
2022-11-13T10:15:02.748Z,56
2022-11-13T10:18:28.213Z,57
2022-11-13T10:22:02.847Z,58
2022-11-13T10:25:18.416Z,58
2022-11-13T10:28:50.372Z,59
2022-11-13T10:32:08.840Z,56
2022-11-13T10:35:34.047Z,57
2022-11-13T10:38:59.263Z,56
2022-11-13T10:42:24.487Z,57
2022-11-13T10:45:49.855Z,54
2022-11-13T10:49:14.970Z,57
2022-11-13T10:52:40.187Z,56
2022-11-13T10:56:05.425Z,57
2022-11-13T10:59:30.678Z,56
2022-11-13T11:02:56.002Z,55
2022-11-13T11:06:21.098Z,58
2022-11-13T11:09:46.334Z,59
2022-11-13T11:13:11.554Z,57
2022-11-13T11:16:36.768Z,57
2022-11-13T11:20:02.109Z,55
2022-11-13T11:23:27.225Z,58
2022-11-13T11:26:52.430Z,58
2022-11-13T11:30:17.678Z,59
2022-11-13T11:33:42.900Z,59
2022-11-13T11:37:08.239Z,60
2022-11-13T11:40:33.366Z,59
2022-11-13T11:43:58.603Z,56
2022-11-13T11:47:23.843Z,57
2022-11-13T11:50:49.093Z,55
2022-11-13T11:54:14.453Z,55
2022-11-13T11:57:39.587Z,55
2022-11-13T12:01:04.816Z,56
2022-11-13T12:04:30.048Z,55
2022-11-13T12:07:55.260Z,54
2022-11-13T12:11:20.590Z,55
2022-11-13T12:14:45.686Z,56
2022-11-13T12:18:10.909Z,54
2022-11-13T12:21:36.131Z,55
2022-11-13T12:25:01.361Z,55
2022-11-13T12:28:27.013Z,56
2022-11-13T12:31:51.830Z,56
2022-11-13T12:35:17.043Z,56
2022-11-13T12:38:42.281Z,56
2022-11-13T12:42:07.507Z,56
2022-11-13T12:45:32.852Z,58
2022-11-13T12:48:57.966Z,58
2022-11-13T12:52:23.183Z,58
2022-11-13T12:55:48.461Z,59
2022-11-13T12:59:30.195Z,57
2022-11-13T13:02:39.044Z,61
2022-11-13T13:06:04.135Z,60
2022-11-13T13:09:29.389Z,57
2022-11-13T13:12:54.635Z,58
2022-11-13T13:16:19.865Z,59
2022-11-13T13:19:45.232Z,60
2022-11-13T13:23:10.351Z,62
2022-11-13T13:26:35.559Z,62
2022-11-13T13:30:00.796Z,64
2022-11-13T13:33:26.019Z,64
2022-11-13T13:36:51.408Z,63
2022-11-13T13:40:16.457Z,62
2022-11-13T13:43:41.671Z,63
2022-11-13T13:47:06.931Z,64
2022-11-13T13:50:32.176Z,62
2022-11-13T13:53:57.516Z,61
2022-11-13T13:57:22.646Z,61
2022-11-13T14:01:05.369Z,60
2022-11-13T14:04:13.079Z,61
2022-11-13T14:07:38.310Z,59
2022-11-13T14:11:03.681Z,60
2022-11-13T14:14:28.778Z,61
2022-11-13T14:17:54.022Z,64
2022-11-13T14:21:19.245Z,65
2022-11-13T14:24:44.493Z,66
2022-11-13T14:28:09.824Z,67
2022-11-13T15:04:44.119Z,69
2022-11-13T15:08:09.291Z,69
2022-11-13T15:11:34.557Z,70
2022-11-13T15:14:59.798Z,70
2022-11-13T15:18:25.046Z,71
2022-11-13T15:22:12.724Z,71
2022-11-13T15:25:15.584Z,71
2022-11-13T15:28:40.834Z,71
2022-11-13T15:32:06.383Z,72
2022-11-13T15:35:31.391Z,71
2022-11-13T15:38:56.761Z,72
2022-11-13T15:42:21.946Z,72
2022-11-13T15:45:47.180Z,71
2022-11-13T15:49:12.420Z,72
2022-11-13T15:52:37.713Z,72
2022-11-13T15:56:03.094Z,74
2022-11-13T15:59:28.247Z,72
2022-11-13T16:02:53.542Z,74
2022-11-13T16:06:18.792Z,74
2022-11-13T16:09:44.045Z,74
2022-11-13T16:13:09.424Z,73
2022-11-13T16:16:34.585Z,73
2022-11-13T16:19:59.896Z,73
2022-11-13T16:23:25.095Z,72
2022-11-13T16:26:50.430Z,72
2022-11-13T16:30:15.877Z,74
2022-11-13T16:33:49.192Z,75
2022-11-13T16:37:26.280Z,75
2022-11-13T16:40:52.844Z,76
2022-11-13T16:44:21.618Z,74
2022-11-13T16:47:46.990Z,72
2022-11-13T16:51:12.256Z,69
2022-11-13T16:54:37.516Z,68
2022-11-13T16:58:02.782Z,68
2022-11-13T17:01:28.081Z,69
2022-11-13T17:04:53.474Z,69
2022-11-13T17:08:18.634Z,68
2022-11-13T17:11:43.944Z,68
2022-11-13T17:15:09.257Z,69
2022-11-13T17:18:34.557Z,69
2022-11-13T17:21:59.994Z,70
2022-11-13T17:25:25.237Z,70
2022-11-13T17:28:50.555Z,70
2022-11-13T17:32:15.857Z,70
2022-11-13T17:35:41.167Z,72
2022-11-13T17:39:06.610Z,72
2022-11-13T17:42:31.794Z,72
2022-11-13T17:45:57.111Z,72
2022-11-13T17:49:22.421Z,72
2022-11-13T17:52:47.778Z,73
2022-11-13T17:56:14.328Z,73
2022-11-13T17:59:39.590Z,73
2022-11-13T18:03:04.862Z,74
2022-11-13T18:06:30.180Z,75
2022-11-13T18:09:55.514Z,75
2022-11-13T18:13:20.927Z,75
2022-11-13T18:16:46.165Z,76
2022-11-13T18:20:11.440Z,76
2022-11-13T18:23:36.727Z,76
2022-11-13T18:27:02.042Z,76
2022-11-13T18:30:27.432Z,77
2022-11-13T18:33:52.576Z,77
2022-11-13T18:37:17.914Z,78
2022-11-13T18:40:43.240Z,78
2022-11-13T18:44:08.547Z,79
2022-11-13T18:47:34.018Z,80
2022-11-13T18:50:59.192Z,80
2022-11-13T18:54:24.555Z,81
2022-11-13T18:57:49.818Z,80
2022-11-13T19:01:19.003Z,81
2022-11-13T19:04:40.508Z,81
2022-11-13T19:08:05.650Z,81
2022-11-13T19:11:30.932Z,81
2022-11-13T19:14:56.198Z,82
2022-11-13T19:18:21.584Z,82
2022-11-13T19:21:46.994Z,83
2022-11-13T19:25:12.144Z,83
2022-11-13T19:28:37.468Z,84
2022-11-13T19:32:02.780Z,84
2022-11-13T19:35:28.061Z,84
2022-11-13T19:38:53.500Z,84
2022-11-13T19:42:18.712Z,84
2022-11-13T19:45:44.004Z,84
2022-11-13T19:49:09.333Z,85
2022-11-13T19:52:34.625Z,85
2022-11-13T19:55:59.922Z,86
2022-11-13T19:59:25.207Z,86
2022-11-13T20:02:50.514Z,87
2022-11-13T20:06:15.819Z,87
2022-11-13T20:09:41.072Z,87
2022-11-13T20:13:06.473Z,87
2022-11-13T20:16:31.656Z,86
2022-11-13T20:19:56.964Z,86
2022-11-13T20:23:22.252Z,87
2022-11-13T20:26:47.604Z,87
2022-11-13T20:30:13.001Z,86
2022-11-13T20:33:38.176Z,86
2022-11-13T20:37:03.468Z,86
2022-11-13T20:40:28.827Z,86
2022-11-13T20:43:54.119Z,86
2022-11-13T20:47:19.569Z,86
2022-11-13T20:50:44.698Z,86
2022-11-13T20:54:09.927Z,87
2022-11-13T20:57:39.738Z,86
2022-11-13T21:01:00.404Z,86
2022-11-13T21:04:25.738Z,85
2022-11-13T21:07:50.833Z,86
2022-11-13T21:11:16.076Z,86
2022-11-13T21:14:41.314Z,87
2022-11-13T21:18:06.520Z,87
2022-11-13T21:21:31.873Z,88
2022-11-13T21:24:56.973Z,88
2022-11-13T21:28:24.147Z,88
2022-11-13T21:31:47.473Z,87
2022-11-13T21:35:12.704Z,87
2022-11-13T21:38:38.056Z,87
2022-11-13T21:42:03.161Z,86
2022-11-13T21:45:28.387Z,86
2022-11-13T21:48:53.620Z,86
2022-11-13T21:52:18.895Z,86
2022-11-13T21:55:44.245Z,86
2022-11-13T21:59:09.359Z,86
2022-11-13T22:02:34.623Z,86
2022-11-13T22:05:59.800Z,86
2022-11-13T22:09:25.042Z,86
2022-11-13T22:12:50.372Z,87
2022-11-13T22:16:16.121Z,86
2022-11-13T22:19:41.381Z,86
2022-11-13T22:23:06.565Z,87
2022-11-13T22:26:31.789Z,86
2022-11-13T22:29:57.130Z,86
2022-11-13T22:33:22.239Z,86
2022-11-13T22:36:47.474Z,87
2022-11-13T22:40:12.711Z,86
2022-11-13T22:43:37.908Z,86
2022-11-13T22:47:03.261Z,86
2022-11-13T22:50:28.346Z,86
2022-11-13T22:53:53.569Z,86
2022-11-13T22:57:18.793Z,87
2022-11-13T23:00:44.033Z,87
2022-11-13T23:04:09.361Z,88
2022-11-13T23:07:34.481Z,88
2022-11-13T23:10:59.711Z,88
2022-11-13T23:14:24.946Z,88
2022-11-13T23:17:50.231Z,87
2022-11-13T23:21:15.572Z,87
2022-11-13T23:24:40.692Z,87
2022-11-13T23:28:05.888Z,87
2022-11-13T23:31:31.114Z,88
2022-11-13T23:35:00.132Z,88
2022-11-13T23:38:21.680Z,87
2022-11-13T23:41:46.798Z,87
2022-11-13T23:45:12.026Z,87
2022-11-13T23:48:39.769Z,87
2022-11-13T23:52:02.470Z,87
2022-11-13T23:55:27.822Z,87
2022-11-13T23:58:52.939Z,86
